sensor_id;sensor_type;location;lat;lon;timestamp;temperature;humidity
19033;DHT22;9649;51.042;13.804;2023-04-25T00:01:42;10.20;99.90
19033;DHT22;9649;51.042;13.804;2023-04-25T00:06:45;10.20;99.90
19033;DHT22;9649;51.042;13.804;2023-04-25T00:11:48;10.30;99.90
19033;DHT22;9649;51.042;13.804;2023-04-25T00:16:52;10.20;99.90
19033;DHT22;9649;51.042;13.804;2023-04-25T00:21:55;10.20;1.00
19033;DHT22;9649;51.042;13.804;2023-04-25T00:26:58;10.30;71.40
19033;DHT22;9649;51.042;13.804;2023-04-25T00:32:03;10.50;1.00
19033;DHT22;9649;51.042;13.804;2023-04-25T00:37:05;10.60;1.00
19033;DHT22;9649;51.042;13.804;2023-04-25T00:42:08;10.30;1.00
19033;DHT22;9649;51.042;13.804;2023-04-25T00:47:13;10.10;1.00
19033;DHT22;9649;51.042;13.804;2023-04-25T00:52:16;10.10;1.00
19033;DHT22;9649;51.042;13.804;2023-04-25T00:57:18;10.10;99.90
19033;DHT22;9649;51.042;13.804;2023-04-25T01:02:23;10.00;6.40
19033;DHT22;9649;51.042;13.804;2023-04-25T01:07:27;9.90;1.00
19033;DHT22;9649;51.042;13.804;2023-04-25T01:12:30;9.60;1.00
19033;DHT22;9649;51.042;13.804;2023-04-25T01:17:35;9.50;1.00
19033;DHT22;9649;51.042;13.804;2023-04-25T01:22:39;9.40;1.00
19033;DHT22;9649;51.042;13.804;2023-04-25T01:27:42;9.10;1.00
19033;DHT22;9649;51.042;13.804;2023-04-25T01:32:45;8.80;80.80
19033;DHT22;9649;51.042;13.804;2023-04-25T01:37:51;8.50;1.00
19033;DHT22;9649;51.042;13.804;2023-04-25T01:42:54;8.70;1.00
19033;DHT22;9649;51.042;13.804;2023-04-25T01:47:56;8.70;99.90
19033;DHT22;9649;51.042;13.804;2023-04-25T01:53:02;8.80;1.00
19033;DHT22;9649;51.042;13.804;2023-04-25T01:58:05;8.60;1.00
19033;DHT22;9649;51.042;13.804;2023-04-25T02:03:10;8.40;99.90
19033;DHT22;9649;51.042;13.804;2023-04-25T02:08:17;8.20;99.90
19033;DHT22;9649;51.042;13.804;2023-04-25T02:13:20;8.20;99.90
19033;DHT22;9649;51.042;13.804;2023-04-25T02:18:22;8.20;99.90
19033;DHT22;9649;51.042;13.804;2023-04-25T02:23:27;8.30;1.00
19033;DHT22;9649;51.042;13.804;2023-04-25T02:28:30;8.30;1.00
19033;DHT22;9649;51.042;13.804;2023-04-25T02:33:33;8.10;1.00
19033;DHT22;9649;51.042;13.804;2023-04-25T02:38:37;7.80;99.90
19033;DHT22;9649;51.042;13.804;2023-04-25T02:43:40;7.90;99.90
19033;DHT22;9649;51.042;13.804;2023-04-25T02:48:43;8.10;1.00
19033;DHT22;9649;51.042;13.804;2023-04-25T02:53:47;8.00;1.00
19033;DHT22;9649;51.042;13.804;2023-04-25T02:58:50;7.90;99.90
19033;DHT22;9649;51.042;13.804;2023-04-25T03:03:52;7.90;99.90
19033;DHT22;9649;51.042;13.804;2023-04-25T03:08:57;7.70;99.90
19033;DHT22;9649;51.042;13.804;2023-04-25T03:14:00;7.60;99.90
19033;DHT22;9649;51.042;13.804;2023-04-25T03:19:03;7.40;1.00
19033;DHT22;9649;51.042;13.804;2023-04-25T03:24:07;7.30;1.00
19033;DHT22;9649;51.042;13.804;2023-04-25T03:29:10;7.10;1.00
19033;DHT22;9649;51.042;13.804;2023-04-25T03:34:13;7.30;1.00
19033;DHT22;9649;51.042;13.804;2023-04-25T03:39:17;7.20;1.00
19033;DHT22;9649;51.042;13.804;2023-04-25T03:44:20;7.00;1.00
19033;DHT22;9649;51.042;13.804;2023-04-25T03:49:22;6.70;1.00
19033;DHT22;9649;51.042;13.804;2023-04-25T03:54:27;6.60;1.00
19033;DHT22;9649;51.042;13.804;2023-04-25T03:59:29;6.60;1.00
19033;DHT22;9649;51.042;13.804;2023-04-25T04:04:32;6.60;1.00
19033;DHT22;9649;51.042;13.804;2023-04-25T04:09:36;6.60;1.00
19033;DHT22;9649;51.042;13.804;2023-04-25T04:14:40;6.60;1.00
19033;DHT22;9649;51.042;13.804;2023-04-25T04:19:42;6.70;1.00
19033;DHT22;9649;51.042;13.804;2023-04-25T04:24:47;6.80;1.00
19033;DHT22;9649;51.042;13.804;2023-04-25T04:29:51;7.10;1.00
19033;DHT22;9649;51.042;13.804;2023-04-25T04:34:54;7.60;1.00
19033;DHT22;9649;51.042;13.804;2023-04-25T04:39:58;7.80;1.00
19033;DHT22;9649;51.042;13.804;2023-04-25T04:45:03;7.70;1.00
19033;DHT22;9649;51.042;13.804;2023-04-25T04:50:06;8.00;1.00
19033;DHT22;9649;51.042;13.804;2023-04-25T04:55:11;8.00;99.90
19033;DHT22;9649;51.042;13.804;2023-04-25T05:00:14;8.30;1.00
19033;DHT22;9649;51.042;13.804;2023-04-25T05:05:17;8.50;1.00
19033;DHT22;9649;51.042;13.804;2023-04-25T05:10:21;8.80;1.00
19033;DHT22;9649;51.042;13.804;2023-04-25T05:15:24;8.90;99.90
19033;DHT22;9649;51.042;13.804;2023-04-25T05:20:27;9.10;1.00
19033;DHT22;9649;51.042;13.804;2023-04-25T05:25:31;9.30;1.00
19033;DHT22;9649;51.042;13.804;2023-04-25T05:30:35;9.60;99.90
19033;DHT22;9649;51.042;13.804;2023-04-25T05:35:38;10.00;99.90
19033;DHT22;9649;51.042;13.804;2023-04-25T05:40:42;10.10;1.00
19033;DHT22;9649;51.042;13.804;2023-04-25T05:45:44;10.10;1.00
19033;DHT22;9649;51.042;13.804;2023-04-25T05:50:47;10.10;13.70
19033;DHT22;9649;51.042;13.804;2023-04-25T05:55:51;10.00;1.00
19033;DHT22;9649;51.042;13.804;2023-04-25T06:00:54;9.80;1.00
19033;DHT22;9649;51.042;13.804;2023-04-25T06:05:57;9.90;1.00
19033;DHT22;9649;51.042;13.804;2023-04-25T06:11:01;10.10;99.90
19033;DHT22;9649;51.042;13.804;2023-04-25T06:16:04;10.00;99.90
19033;DHT22;9649;51.042;13.804;2023-04-25T06:21:07;10.30;99.90
19033;DHT22;9649;51.042;13.804;2023-04-25T06:26:11;10.30;1.00
19033;DHT22;9649;51.042;13.804;2023-04-25T06:31:14;10.30;1.00
19033;DHT22;9649;51.042;13.804;2023-04-25T06:36:17;10.30;1.00
19033;DHT22;9649;51.042;13.804;2023-04-25T06:41:21;10.30;1.00
19033;DHT22;9649;51.042;13.804;2023-04-25T06:46:23;10.50;1.00
19033;DHT22;9649;51.042;13.804;2023-04-25T06:51:26;10.70;1.00
19033;DHT22;9649;51.042;13.804;2023-04-25T06:56:32;10.80;1.00
19033;DHT22;9649;51.042;13.804;2023-04-25T07:01:35;11.20;99.90
19033;DHT22;9649;51.042;13.804;2023-04-25T07:06:37;11.20;1.00
19033;DHT22;9649;51.042;13.804;2023-04-25T07:11:45;11.10;1.00
19033;DHT22;9649;51.042;13.804;2023-04-25T07:16:48;11.10;1.00
19033;DHT22;9649;51.042;13.804;2023-04-25T07:21:51;11.70;1.00
19033;DHT22;9649;51.042;13.804;2023-04-25T07:26:56;11.70;1.00
19033;DHT22;9649;51.042;13.804;2023-04-25T07:31:59;12.40;1.00
19033;DHT22;9649;51.042;13.804;2023-04-25T07:37:02;12.60;99.90
19033;DHT22;9649;51.042;13.804;2023-04-25T07:42:06;12.60;99.90
19033;DHT22;9649;51.042;13.804;2023-04-25T07:47:10;12.80;99.90
19033;DHT22;9649;51.042;13.804;2023-04-25T07:52:12;13.20;99.90
19033;DHT22;9649;51.042;13.804;2023-04-25T07:57:17;12.70;99.90
19033;DHT22;9649;51.042;13.804;2023-04-25T08:02:21;13.20;99.90
19033;DHT22;9649;51.042;13.804;2023-04-25T08:07:23;13.70;48.50
19033;DHT22;9649;51.042;13.804;2023-04-25T08:12:27;13.70;1.00
19033;DHT22;9649;51.042;13.804;2023-04-25T08:17:30;15.20;1.00
19033;DHT22;9649;51.042;13.804;2023-04-25T08:22:33;16.50;1.00
19033;DHT22;9649;51.042;13.804;2023-04-25T08:27:38;15.90;1.00
19033;DHT22;9649;51.042;13.804;2023-04-25T08:32:41;17.50;1.00
19033;DHT22;9649;51.042;13.804;2023-04-25T08:37:44;15.80;1.00
19033;DHT22;9649;51.042;13.804;2023-04-25T08:42:49;15.10;1.00
19033;DHT22;9649;51.042;13.804;2023-04-25T08:47:53;14.80;1.00
19033;DHT22;9649;51.042;13.804;2023-04-25T08:52:59;13.80;1.00
19033;DHT22;9649;51.042;13.804;2023-04-25T08:58:05;13.00;1.00
19033;DHT22;9649;51.042;13.804;2023-04-25T09:03:08;12.80;1.00
19033;DHT22;9649;51.042;13.804;2023-04-25T09:08:11;13.60;99.90
19033;DHT22;9649;51.042;13.804;2023-04-25T09:13:24;14.80;64.90
19033;DHT22;9649;51.042;13.804;2023-04-25T09:18:28;14.60;1.00
19033;DHT22;9649;51.042;13.804;2023-04-25T09:23:38;14.50;1.00
19033;DHT22;9649;51.042;13.804;2023-04-25T09:28:43;14.50;1.00
19033;DHT22;9649;51.042;13.804;2023-04-25T09:33:47;14.70;1.00
19033;DHT22;9649;51.042;13.804;2023-04-25T09:38:52;13.60;1.00
19033;DHT22;9649;51.042;13.804;2023-04-25T09:43:58;12.90;1.00
19033;DHT22;9649;51.042;13.804;2023-04-25T09:49:06;12.50;99.90
19033;DHT22;9649;51.042;13.804;2023-04-25T09:54:09;12.30;99.90
19033;DHT22;9649;51.042;13.804;2023-04-25T09:59:14;12.10;1.00
19033;DHT22;9649;51.042;13.804;2023-04-25T10:04:24;11.90;1.00
19033;DHT22;9649;51.042;13.804;2023-04-25T10:09:32;11.60;1.00
19033;DHT22;9649;51.042;13.804;2023-04-25T10:14:37;11.90;1.00
19033;DHT22;9649;51.042;13.804;2023-04-25T10:19:40;12.40;1.00
19033;DHT22;9649;51.042;13.804;2023-04-25T10:24:44;13.70;1.00
19033;DHT22;9649;51.042;13.804;2023-04-25T10:30:02;14.60;99.90
19033;DHT22;9649;51.042;13.804;2023-04-25T10:35:17;14.50;99.90
19033;DHT22;9649;51.042;13.804;2023-04-25T10:40:22;14.80;9.60
19033;DHT22;9649;51.042;13.804;2023-04-25T10:45:26;14.30;3.10
19033;DHT22;9649;51.042;13.804;2023-04-25T10:50:37;14.60;55.60
19033;DHT22;9649;51.042;13.804;2023-04-25T10:55:49;14.80;16.80
19033;DHT22;9649;51.042;13.804;2023-04-25T11:00:55;14.30;1.00
19033;DHT22;9649;51.042;13.804;2023-04-25T11:05:59;14.30;20.90
19033;DHT22;9649;51.042;13.804;2023-04-25T11:11:03;13.70;94.30
19033;DHT22;9649;51.042;13.804;2023-04-25T11:16:08;12.80;99.90
19033;DHT22;9649;51.042;13.804;2023-04-25T11:21:18;12.00;1.00
19033;DHT22;9649;51.042;13.804;2023-04-25T11:26:22;11.80;1.00
19033;DHT22;9649;51.042;13.804;2023-04-25T11:31:26;12.30;1.00
19033;DHT22;9649;51.042;13.804;2023-04-25T11:36:29;12.00;1.00
19033;DHT22;9649;51.042;13.804;2023-04-25T11:41:32;12.00;1.00
19033;DHT22;9649;51.042;13.804;2023-04-25T11:46:36;12.50;99.90
19033;DHT22;9649;51.042;13.804;2023-04-25T11:51:39;13.10;99.90
19033;DHT22;9649;51.042;13.804;2023-04-25T11:56:43;13.20;1.00
19033;DHT22;9649;51.042;13.804;2023-04-25T12:01:49;13.60;1.00
19033;DHT22;9649;51.042;13.804;2023-04-25T12:06:54;14.90;99.90
19033;DHT22;9649;51.042;13.804;2023-04-25T12:11:58;14.90;1.00
19033;DHT22;9649;51.042;13.804;2023-04-25T12:17:05;14.00;1.00
19033;DHT22;9649;51.042;13.804;2023-04-25T12:22:20;14.40;1.00
19033;DHT22;9649;51.042;13.804;2023-04-25T12:27:25;13.90;1.00
19033;DHT22;9649;51.042;13.804;2023-04-25T12:32:30;13.20;1.00
19033;DHT22;9649;51.042;13.804;2023-04-25T12:37:33;13.00;99.90
19033;DHT22;9649;51.042;13.804;2023-04-25T12:42:35;13.60;99.90
19033;DHT22;9649;51.042;13.804;2023-04-25T12:47:39;14.00;1.00
19033;DHT22;9649;51.042;13.804;2023-04-25T12:52:42;15.20;1.00
19033;DHT22;9649;51.042;13.804;2023-04-25T12:57:45;17.80;1.00
19033;DHT22;9649;51.042;13.804;2023-04-25T13:02:49;15.60;1.00
19033;DHT22;9649;51.042;13.804;2023-04-25T13:07:52;14.30;1.00
19033;DHT22;9649;51.042;13.804;2023-04-25T13:12:54;13.70;1.00
19033;DHT22;9649;51.042;13.804;2023-04-25T13:17:58;13.90;1.00
19033;DHT22;9649;51.042;13.804;2023-04-25T13:23:01;13.40;1.00
19033;DHT22;9649;51.042;13.804;2023-04-25T13:28:04;12.20;1.00
19033;DHT22;9649;51.042;13.804;2023-04-25T13:33:08;12.00;1.00
19033;DHT22;9649;51.042;13.804;2023-04-25T13:38:12;11.50;99.90
19033;DHT22;9649;51.042;13.804;2023-04-25T13:43:14;11.20;99.90
19033;DHT22;9649;51.042;13.804;2023-04-25T13:48:19;11.10;1.00
19033;DHT22;9649;51.042;13.804;2023-04-25T13:53:22;10.90;1.00
19033;DHT22;9649;51.042;13.804;2023-04-25T13:58:25;10.80;1.00
19033;DHT22;9649;51.042;13.804;2023-04-25T14:03:29;10.70;1.00
19033;DHT22;9649;51.042;13.804;2023-04-25T14:08:32;10.80;1.00
19033;DHT22;9649;51.042;13.804;2023-04-25T14:13:35;11.10;1.00
19033;DHT22;9649;51.042;13.804;2023-04-25T14:18:39;11.00;1.00
19033;DHT22;9649;51.042;13.804;2023-04-25T14:23:42;11.10;99.90
19033;DHT22;9649;51.042;13.804;2023-04-25T14:28:45;11.60;99.90
19033;DHT22;9649;51.042;13.804;2023-04-25T14:33:49;11.70;99.90
19033;DHT22;9649;51.042;13.804;2023-04-25T14:38:53;12.20;99.90
19033;DHT22;9649;51.042;13.804;2023-04-25T14:43:56;14.10;12.20
19033;DHT22;9649;51.042;13.804;2023-04-25T14:49:01;14.70;1.00
19033;DHT22;9649;51.042;13.804;2023-04-25T14:54:05;15.80;1.00
19033;DHT22;9649;51.042;13.804;2023-04-25T14:59:07;14.20;1.00
19033;DHT22;9649;51.042;13.804;2023-04-25T15:04:11;14.30;1.00
19033;DHT22;9649;51.042;13.804;2023-04-25T15:09:16;13.40;1.00
19033;DHT22;9649;51.042;13.804;2023-04-25T15:14:19;13.30;1.00
19033;DHT22;9649;51.042;13.804;2023-04-25T15:19:24;12.90;1.00
19033;DHT22;9649;51.042;13.804;2023-04-25T15:24:26;12.50;1.00
19033;DHT22;9649;51.042;13.804;2023-04-25T15:29:32;12.20;1.00
19033;DHT22;9649;51.042;13.804;2023-04-25T15:34:36;12.10;1.00
19033;DHT22;9649;51.042;13.804;2023-04-25T15:39:39;11.70;1.00
19033;DHT22;9649;51.042;13.804;2023-04-25T15:44:41;11.30;1.00
19033;DHT22;9649;51.042;13.804;2023-04-25T15:49:46;11.00;1.00
19033;DHT22;9649;51.042;13.804;2023-04-25T15:54:48;10.80;1.00
19033;DHT22;9649;51.042;13.804;2023-04-25T15:59:51;10.90;1.00
19033;DHT22;9649;51.042;13.804;2023-04-25T16:04:55;10.60;1.00
19033;DHT22;9649;51.042;13.804;2023-04-25T16:09:58;10.60;1.00
19033;DHT22;9649;51.042;13.804;2023-04-25T16:15:01;10.80;1.00
19033;DHT22;9649;51.042;13.804;2023-04-25T16:20:06;10.80;1.00
19033;DHT22;9649;51.042;13.804;2023-04-25T16:25:11;10.90;1.00
19033;DHT22;9649;51.042;13.804;2023-04-25T16:30:14;11.00;1.00
19033;DHT22;9649;51.042;13.804;2023-04-25T16:35:18;11.40;1.00
19033;DHT22;9649;51.042;13.804;2023-04-25T16:40:20;11.40;1.00
19033;DHT22;9649;51.042;13.804;2023-04-25T16:45:23;11.70;1.00
19033;DHT22;9649;51.042;13.804;2023-04-25T16:50:28;11.60;1.00
19033;DHT22;9649;51.042;13.804;2023-04-25T16:55:30;11.50;1.00
19033;DHT22;9649;51.042;13.804;2023-04-25T17:00:33;11.40;1.00
19033;DHT22;9649;51.042;13.804;2023-04-25T17:05:38;11.10;1.00
19033;DHT22;9649;51.042;13.804;2023-04-25T17:10:41;11.00;1.00
19033;DHT22;9649;51.042;13.804;2023-04-25T17:15:44;10.70;1.00
19033;DHT22;9649;51.042;13.804;2023-04-25T17:20:48;10.40;1.00
19033;DHT22;9649;51.042;13.804;2023-04-25T17:25:51;10.40;1.00
19033;DHT22;9649;51.042;13.804;2023-04-25T17:30:54;10.80;1.00
19033;DHT22;9649;51.042;13.804;2023-04-25T17:35:58;11.40;1.00
19033;DHT22;9649;51.042;13.804;2023-04-25T17:41:00;10.90;1.00
19033;DHT22;9649;51.042;13.804;2023-04-25T17:46:03;10.50;1.00
19033;DHT22;9649;51.042;13.804;2023-04-25T17:51:08;10.10;1.00
19033;DHT22;9649;51.042;13.804;2023-04-25T17:56:11;9.80;1.00
19033;DHT22;9649;51.042;13.804;2023-04-25T18:01:27;9.60;1.00
19033;DHT22;9649;51.042;13.804;2023-04-25T18:06:32;9.50;1.00
19033;DHT22;9649;51.042;13.804;2023-04-25T18:11:35;9.30;1.00
19033;DHT22;9649;51.042;13.804;2023-04-25T18:16:37;9.10;1.00
19033;DHT22;9649;51.042;13.804;2023-04-25T18:21:41;9.20;1.00
19033;DHT22;9649;51.042;13.804;2023-04-25T18:26:56;9.30;1.00
19033;DHT22;9649;51.042;13.804;2023-04-25T18:45:05;9.20;1.00
19033;DHT22;9649;51.042;13.804;2023-04-25T18:50:13;9.20;1.00
19033;DHT22;9649;51.042;13.804;2023-04-25T19:01:39;8.80;2.40
19033;DHT22;9649;51.042;13.804;2023-04-25T19:07:23;8.50;99.90
19033;DHT22;9649;51.042;13.804;2023-04-25T19:12:55;8.30;99.90
19033;DHT22;9649;51.042;13.804;2023-04-25T19:18:18;8.10;99.90
19033;DHT22;9649;51.042;13.804;2023-04-25T19:23:44;7.90;1.00
19033;DHT22;9649;51.042;13.804;2023-04-25T19:35:02;7.90;1.00
19033;DHT22;9649;51.042;13.804;2023-04-25T19:40:18;7.80;1.00
19033;DHT22;9649;51.042;13.804;2023-04-25T19:45:45;7.60;1.00
19033;DHT22;9649;51.042;13.804;2023-04-25T19:51:25;7.50;1.00
19033;DHT22;9649;51.042;13.804;2023-04-25T19:56:46;7.30;56.70
19033;DHT22;9649;51.042;13.804;2023-04-25T20:02:05;7.30;99.90
19033;DHT22;9649;51.042;13.804;2023-04-25T20:07:27;7.20;99.90
19033;DHT22;9649;51.042;13.804;2023-04-25T20:12:38;7.00;99.90
19033;DHT22;9649;51.042;13.804;2023-04-25T20:18:10;6.90;1.00
19033;DHT22;9649;51.042;13.804;2023-04-25T20:23:39;6.60;1.00
19033;DHT22;9649;51.042;13.804;2023-04-25T20:28:58;6.80;1.00
19033;DHT22;9649;51.042;13.804;2023-04-25T20:40:53;6.70;1.00
19033;DHT22;9649;51.042;13.804;2023-04-25T20:46:51;6.70;1.00
19033;DHT22;9649;51.042;13.804;2023-04-25T20:52:21;6.70;1.00
19033;DHT22;9649;51.042;13.804;2023-04-25T20:57:40;6.50;1.00
19033;DHT22;9649;51.042;13.804;2023-04-25T21:03:00;6.30;99.90
19033;DHT22;9649;51.042;13.804;2023-04-25T21:08:18;6.30;99.90
19033;DHT22;9649;51.042;13.804;2023-04-25T21:13:22;6.50;99.90
19033;DHT22;9649;51.042;13.804;2023-04-25T21:18:27;6.50;99.90
19033;DHT22;9649;51.042;13.804;2023-04-25T21:23:32;6.50;99.90
19033;DHT22;9649;51.042;13.804;2023-04-25T21:28:36;6.80;99.90
19033;DHT22;9649;51.042;13.804;2023-04-25T21:33:39;6.90;12.50
19033;DHT22;9649;51.042;13.804;2023-04-25T21:38:42;6.90;1.00
19033;DHT22;9649;51.042;13.804;2023-04-25T21:43:46;6.80;1.00
19033;DHT22;9649;51.042;13.804;2023-04-25T21:48:48;6.90;1.00
19033;DHT22;9649;51.042;13.804;2023-04-25T21:53:52;6.90;1.00
19033;DHT22;9649;51.042;13.804;2023-04-25T21:58:56;6.90;71.90
19033;DHT22;9649;51.042;13.804;2023-04-25T22:03:59;7.00;99.90
19033;DHT22;9649;51.042;13.804;2023-04-25T22:09:02;7.20;78.50
19033;DHT22;9649;51.042;13.804;2023-04-25T22:14:06;7.20;1.00
19033;DHT22;9649;51.042;13.804;2023-04-25T22:19:09;7.30;1.00
19033;DHT22;9649;51.042;13.804;2023-04-25T22:24:12;7.40;1.00
19033;DHT22;9649;51.042;13.804;2023-04-25T22:29:16;7.40;1.00
19033;DHT22;9649;51.042;13.804;2023-04-25T22:34:19;7.60;1.00
19033;DHT22;9649;51.042;13.804;2023-04-25T22:39:22;7.60;99.90
19033;DHT22;9649;51.042;13.804;2023-04-25T22:44:26;7.60;99.90
19033;DHT22;9649;51.042;13.804;2023-04-25T22:49:28;7.50;99.90
19033;DHT22;9649;51.042;13.804;2023-04-25T22:54:31;7.40;99.90
19033;DHT22;9649;51.042;13.804;2023-04-25T22:59:35;7.30;99.90
19033;DHT22;9649;51.042;13.804;2023-04-25T23:04:38;7.30;1.00
19033;DHT22;9649;51.042;13.804;2023-04-25T23:09:41;7.40;1.00
19033;DHT22;9649;51.042;13.804;2023-04-25T23:14:49;7.20;1.00
19033;DHT22;9649;51.042;13.804;2023-04-25T23:19:52;7.10;99.90
19033;DHT22;9649;51.042;13.804;2023-04-25T23:24:54;7.00;1.00
19033;DHT22;9649;51.042;13.804;2023-04-25T23:29:59;7.00;1.00
19033;DHT22;9649;51.042;13.804;2023-04-25T23:35:01;7.00;1.00
19033;DHT22;9649;51.042;13.804;2023-04-25T23:40:06;7.10;1.00
19033;DHT22;9649;51.042;13.804;2023-04-25T23:45:12;7.20;95.80
19033;DHT22;9649;51.042;13.804;2023-04-25T23:50:16;7.20;1.00
19033;DHT22;9649;51.042;13.804;2023-04-25T23:55:19;7.20;1.00
